createdAt,value
2023-04-17T00:00:50.772Z,44.20
2023-04-17T00:03:20.086Z,45.05
2023-04-17T00:05:49.517Z,45.43
2023-04-17T00:08:23.340Z,46.07
2023-04-17T00:11:00.670Z,47.10
2023-04-17T00:13:22.628Z,45.70
2023-04-17T00:15:51.924Z,45.90
2023-04-17T00:18:21.436Z,47.00
2023-04-17T00:20:50.837Z,47.27
2023-04-17T00:23:20.232Z,47.78
2023-04-17T00:25:49.642Z,48.60
2023-04-17T00:28:18.945Z,47.53
2023-04-17T00:30:48.245Z,47.75
2023-04-17T00:33:17.436Z,46.33
2023-04-17T00:35:46.648Z,48.73
2023-04-17T00:38:15.948Z,48.77
2023-04-17T00:40:45.334Z,49.08
2023-04-17T00:43:14.417Z,47.73
2023-04-17T00:45:43.664Z,48.70
2023-04-17T00:48:12.937Z,48.08
2023-04-17T00:50:45.114Z,47.20
2023-04-17T00:53:14.522Z,50.28
2023-04-17T00:55:43.810Z,48.80
2023-04-17T00:58:13.113Z,49.08
2023-04-17T01:00:42.537Z,49.55
2023-04-17T01:03:12.017Z,49.33
2023-04-17T01:05:41.424Z,48.28
2023-04-17T01:08:10.611Z,48.92
2023-04-17T01:10:40.027Z,48.57
2023-04-17T01:15:39.346Z,48.83
2023-04-17T01:18:08.802Z,48.30
2023-04-17T01:20:38.018Z,49.77
2023-04-17T01:23:07.235Z,47.93
2023-04-17T01:25:36.750Z,49.63
2023-04-17T01:28:06.347Z,50.45
2023-04-17T01:30:35.994Z,47.67
2023-04-17T01:33:06.772Z,47.62
2023-04-17T01:35:35.989Z,48.50
2023-04-17T01:38:05.190Z,48.78
2023-04-17T01:40:34.496Z,47.93
2023-04-17T01:43:03.681Z,49.65
2023-04-17T01:45:32.781Z,48.63
2023-04-17T01:48:02.020Z,48.20
2023-04-17T01:50:31.080Z,48.78
2023-04-17T01:53:00.069Z,48.63
2023-04-17T01:55:29.115Z,47.00
2023-04-17T01:57:58.266Z,46.37
2023-04-17T02:00:27.366Z,46.60
2023-04-17T02:02:56.710Z,46.53
2023-04-17T02:05:25.851Z,47.08
2023-04-17T02:07:54.954Z,45.40
2023-04-17T02:10:23.844Z,49.65
2023-04-17T02:12:53.032Z,49.58
2023-04-17T02:15:21.936Z,47.17
2023-04-17T02:17:50.876Z,47.40
2023-04-17T02:20:19.822Z,49.10
2023-04-17T02:22:48.918Z,48.42
2023-04-17T02:25:17.908Z,47.13
2023-04-17T02:27:46.929Z,47.10
2023-04-17T02:30:16.019Z,47.67
2023-04-17T02:32:45.033Z,49.27
2023-04-17T02:35:14.286Z,46.88
2023-04-17T02:37:43.499Z,49.27
2023-04-17T02:40:12.724Z,50.00
2023-04-17T02:42:41.674Z,47.48
2023-04-17T02:45:10.768Z,47.78
2023-04-17T02:50:10.707Z,49.35
2023-04-17T02:52:41.244Z,48.68
2023-04-17T02:55:10.556Z,48.17
2023-04-17T02:57:40.350Z,48.08
2023-04-17T03:00:09.443Z,47.08
2023-04-17T03:02:38.816Z,45.92
2023-04-17T03:05:08.156Z,46.80
2023-04-17T03:07:37.352Z,48.52
2023-04-17T03:10:06.651Z,48.75
2023-04-17T03:12:35.765Z,47.50
2023-04-17T03:15:06.423Z,46.80
2023-04-17T03:17:35.290Z,48.08
2023-04-17T03:20:04.382Z,49.08
2023-04-17T03:22:33.467Z,49.08
2023-04-17T03:25:02.767Z,49.05
2023-04-17T03:27:33.186Z,50.45
2023-04-17T03:30:02.393Z,51.83
2023-04-17T03:32:32.248Z,51.68
2023-04-17T03:35:01.206Z,51.42
2023-04-17T03:37:30.288Z,55.60
2023-04-17T03:39:59.490Z,54.93
2023-04-17T03:42:28.683Z,56.20
2023-04-17T03:44:57.589Z,58.47
2023-04-17T03:47:27.017Z,53.73
2023-04-17T03:49:57.303Z,56.40
2023-04-17T03:52:27.222Z,59.73
2023-04-17T03:54:57.833Z,57.85
2023-04-17T03:57:27.038Z,59.18
2023-04-17T03:59:56.239Z,59.73
2023-04-17T04:02:25.857Z,61.80
2023-04-17T04:04:55.718Z,60.85
2023-04-17T04:07:25.059Z,62.88
2023-04-17T04:09:54.571Z,60.12
2023-04-17T04:12:23.871Z,61.35
2023-04-17T04:14:52.760Z,60.75
2023-04-17T04:17:21.914Z,60.85
2023-04-17T04:19:51.059Z,63.67
2023-04-17T04:22:20.449Z,64.27
2023-04-17T04:24:50.774Z,65.08
2023-04-17T04:27:20.080Z,64.63
2023-04-17T04:29:49.285Z,63.03
2023-04-17T04:32:19.746Z,62.85
2023-04-17T04:34:48.877Z,64.57
2023-04-17T04:37:18.716Z,65.50
2023-04-17T04:42:17.313Z,63.30
2023-04-17T04:44:56.868Z,65.12
2023-04-17T04:47:27.338Z,63.23
2023-04-17T04:49:56.486Z,67.22
2023-04-17T04:52:25.998Z,65.05
2023-04-17T04:54:56.622Z,63.68
2023-04-17T04:57:26.242Z,63.50
2023-04-17T04:59:56.659Z,64.30
2023-04-17T05:02:30.029Z,62.27
2023-04-17T05:04:59.519Z,62.33
2023-04-17T05:07:29.985Z,64.65
2023-04-17T05:09:59.187Z,62.43
2023-04-17T05:12:29.517Z,59.98
2023-04-17T05:14:58.502Z,59.05
2023-04-17T05:17:29.078Z,61.73
2023-04-17T05:19:58.130Z,61.40
2023-04-17T05:22:27.021Z,60.92
2023-04-17T05:25:00.104Z,61.00
2023-04-17T05:27:29.208Z,59.03
2023-04-17T05:29:58.302Z,62.35
2023-04-17T05:32:27.537Z,58.67
2023-04-17T05:34:57.926Z,60.52
2023-04-17T05:37:27.941Z,60.10
2023-04-17T05:39:57.043Z,58.37
2023-04-17T05:42:26.237Z,59.45
2023-04-17T05:44:55.545Z,59.25
2023-04-17T05:47:24.444Z,59.10
2023-04-17T05:52:23.467Z,58.30
2023-04-17T05:54:52.662Z,59.48
2023-04-17T05:57:22.146Z,60.30
2023-04-17T05:59:51.261Z,58.68
2023-04-17T06:02:20.865Z,58.73
2023-04-17T06:04:50.146Z,58.80
2023-04-17T06:07:19.237Z,60.63
2023-04-17T06:09:48.243Z,60.80
2023-04-17T06:12:17.117Z,60.33
2023-04-17T06:14:46.322Z,60.00
2023-04-17T06:17:16.118Z,56.00
2023-04-17T06:19:45.112Z,56.07
2023-04-17T06:22:14.223Z,60.77
2023-04-17T06:24:43.114Z,59.60
2023-04-17T06:27:12.628Z,59.50
2023-04-17T06:29:41.611Z,57.98
2023-04-17T06:32:11.030Z,58.28
2023-04-17T06:34:52.575Z,56.95
2023-04-17T06:37:10.615Z,58.35
2023-04-17T06:39:39.942Z,58.65
2023-04-17T06:42:09.253Z,57.73
2023-04-17T06:44:39.573Z,56.40
2023-04-17T06:47:12.141Z,58.40
2023-04-17T06:49:41.154Z,56.92
2023-04-17T06:52:10.039Z,56.68
2023-04-17T06:54:39.233Z,55.57
2023-04-17T06:57:08.329Z,57.13
2023-04-17T06:59:37.214Z,55.17
2023-04-17T07:02:06.308Z,54.90
2023-04-17T07:04:35.314Z,55.45
2023-04-17T07:07:04.609Z,53.85
2023-04-17T07:09:33.798Z,54.87
2023-04-17T07:12:03.108Z,53.83
2023-04-17T07:14:36.360Z,54.45
2023-04-17T07:17:05.688Z,55.52
2023-04-17T07:19:34.891Z,54.50
2023-04-17T07:22:04.025Z,54.70
2023-04-17T07:24:33.309Z,54.83
2023-04-17T07:27:02.589Z,56.58
2023-04-17T07:29:31.899Z,54.80
2023-04-17T07:32:01.137Z,54.50
2023-04-17T07:34:30.286Z,54.80
2023-04-17T07:36:59.497Z,55.50
2023-04-17T07:39:28.903Z,53.20
2023-04-17T07:41:57.956Z,54.40
2023-04-17T07:44:27.189Z,53.70
2023-04-17T07:46:56.430Z,54.80
2023-04-17T07:49:25.487Z,55.45
2023-04-17T07:51:54.786Z,54.13
2023-04-17T07:54:24.081Z,54.48
2023-04-17T07:56:53.378Z,54.23
2023-04-17T07:59:22.985Z,55.08
2023-04-17T08:01:52.386Z,54.58
2023-04-17T08:04:21.853Z,54.05
2023-04-17T08:06:51.084Z,54.50
2023-04-17T08:09:20.503Z,53.48
2023-04-17T08:11:56.888Z,52.43
2023-04-17T08:14:20.116Z,54.35
2023-04-17T08:16:49.363Z,52.62
2023-04-17T08:19:18.610Z,53.15
2023-04-17T08:21:47.696Z,51.40
2023-04-17T08:24:19.141Z,52.53
2023-04-17T08:26:47.338Z,53.38
2023-04-17T08:29:16.631Z,50.35
2023-04-17T08:31:45.937Z,50.67
2023-04-17T08:34:15.712Z,48.95
2023-04-17T08:36:45.162Z,49.33
2023-04-17T08:39:14.873Z,49.23
2023-04-17T08:44:13.358Z,47.33
2023-04-17T08:46:42.593Z,48.17
2023-04-17T08:49:12.054Z,47.30
2023-04-17T08:51:41.482Z,48.55
2023-04-17T08:54:10.881Z,48.92
2023-04-17T08:56:39.951Z,48.83
2023-04-17T08:59:08.883Z,48.23
2023-04-17T09:01:38.184Z,48.13
2023-04-17T09:04:07.816Z,47.48
2023-04-17T09:06:37.171Z,48.25
2023-04-17T09:09:06.371Z,47.47
2023-04-17T09:11:35.668Z,47.23
2023-04-17T09:14:04.759Z,46.50
2023-04-17T09:16:33.914Z,46.23
2023-04-17T13:01:32.165Z,32.73
2023-04-17T13:04:01.822Z,33.33
2023-04-17T13:06:31.050Z,34.13
2023-04-17T13:08:59.937Z,35.17
2023-04-17T13:11:28.801Z,33.60
2023-04-17T13:13:57.935Z,33.55
2023-04-17T13:16:27.136Z,32.83
2023-04-17T13:18:56.120Z,35.45
2023-04-17T13:21:25.230Z,33.05
2023-04-17T13:23:54.205Z,32.37
2023-04-17T13:26:23.090Z,34.40
2023-04-17T13:28:52.089Z,33.48
2023-04-17T13:31:21.348Z,32.83
2023-04-17T13:33:53.129Z,33.45
2023-04-17T13:36:21.173Z,40.05
2023-04-17T13:38:50.317Z,27.27
2023-04-17T13:41:19.213Z,26.77
2023-04-17T13:43:48.220Z,24.27
2023-04-17T13:46:17.510Z,22.27
2023-04-17T13:48:46.509Z,21.90
2023-04-17T13:51:15.392Z,20.00
2023-04-17T13:53:44.585Z,21.27
2023-04-17T13:56:13.474Z,20.48
2023-04-17T13:58:42.672Z,20.75
2023-04-17T14:01:11.793Z,21.07
2023-04-17T14:03:42.381Z,17.93
2023-04-17T14:06:11.182Z,17.37
2023-04-17T14:08:44.242Z,16.70
2023-04-17T14:11:12.979Z,17.37
2023-04-17T14:13:41.859Z,16.80
2023-04-17T14:16:13.760Z,16.50
2023-04-17T14:18:42.903Z,15.63
2023-04-17T14:21:12.018Z,16.93
2023-04-17T14:23:41.205Z,16.35
2023-04-17T14:26:10.204Z,16.70
2023-04-17T14:28:39.101Z,16.50
2023-04-17T14:31:08.243Z,17.87
2023-04-17T14:33:37.284Z,17.20
2023-04-17T14:36:06.224Z,18.23
2023-04-17T14:38:35.483Z,17.10
2023-04-17T14:41:04.824Z,17.67
2023-04-17T14:43:33.776Z,18.30
2023-04-17T14:46:02.668Z,19.23
2023-04-17T14:48:34.345Z,19.70
2023-04-17T14:51:02.099Z,19.70
2023-04-17T14:53:31.102Z,19.85
2023-04-17T14:56:00.289Z,19.95
2023-04-17T14:58:29.248Z,20.23
2023-04-17T15:00:58.493Z,21.97
2023-04-17T15:03:27.407Z,21.10
2023-04-17T15:05:56.656Z,20.72
2023-04-17T15:08:25.761Z,21.15
2023-04-17T15:10:54.955Z,20.92
2023-04-17T15:13:24.479Z,21.05
2023-04-17T15:15:53.308Z,19.55
2023-04-17T15:18:22.342Z,20.50
2023-04-17T15:20:51.195Z,21.60
2023-04-17T15:23:20.128Z,21.30
2023-04-17T15:25:49.378Z,21.12
2023-04-17T15:28:18.408Z,20.97
2023-04-17T15:30:47.300Z,21.55
2023-04-17T15:33:16.213Z,20.92
2023-04-17T15:35:45.195Z,20.82
2023-04-17T15:38:14.180Z,21.57
2023-04-17T15:40:42.972Z,21.87
2023-04-17T15:43:11.844Z,20.57
2023-04-17T15:45:40.992Z,20.57
2023-04-17T15:48:09.984Z,22.95
2023-04-17T15:50:39.044Z,20.55
2023-04-17T15:53:09.039Z,20.95
2023-04-17T15:55:38.475Z,19.57
2023-04-17T15:58:07.461Z,19.73
2023-04-17T16:00:36.665Z,19.10
2023-04-17T16:03:05.829Z,18.48
2023-04-17T16:05:34.855Z,18.48
2023-04-17T16:08:03.997Z,19.10
2023-04-17T16:10:33.349Z,20.02
2023-04-17T16:13:05.303Z,19.65
2023-04-17T16:15:34.251Z,18.70
2023-04-17T16:18:03.449Z,19.85
2023-04-17T16:20:32.386Z,18.73
2023-04-17T16:23:03.704Z,20.20
2023-04-17T16:25:32.637Z,18.23
2023-04-17T16:28:01.520Z,18.87
2023-04-17T16:30:30.406Z,19.45
2023-04-17T16:32:59.644Z,19.32
2023-04-17T16:35:28.906Z,19.07
2023-04-17T16:37:57.797Z,20.12
2023-04-17T16:40:28.442Z,20.92
2023-04-17T16:42:57.322Z,19.55
2023-04-17T16:45:26.220Z,21.80
2023-04-17T16:48:00.455Z,19.40
2023-04-17T16:50:29.851Z,20.37
2023-04-17T16:53:00.256Z,21.90
2023-04-17T16:55:29.144Z,20.60
2023-04-17T16:57:58.148Z,21.55
2023-04-17T17:00:27.243Z,24.23
2023-04-17T17:02:56.156Z,21.07
2023-04-17T17:05:26.653Z,22.70
2023-04-17T17:07:55.862Z,23.32
2023-04-17T17:10:24.953Z,21.82
2023-04-17T17:12:53.845Z,22.95
2023-04-17T17:15:22.705Z,23.30
2023-04-17T17:17:51.972Z,22.87
2023-04-17T17:20:20.921Z,24.75
2023-04-17T17:22:50.125Z,21.48
2023-04-17T17:25:19.323Z,21.25
2023-04-17T17:27:48.518Z,20.77
2023-04-17T17:30:17.539Z,21.17
2023-04-17T17:32:46.657Z,20.70
2023-04-17T17:35:15.606Z,19.02
2023-04-17T17:37:44.596Z,20.43
2023-04-17T17:40:14.008Z,19.92
2023-04-17T17:42:42.888Z,20.68
2023-04-17T17:45:11.780Z,20.60
2023-04-17T17:47:40.804Z,20.77
2023-04-17T17:50:09.985Z,20.17
2023-04-17T17:52:38.961Z,21.62
2023-04-17T17:55:08.064Z,20.82
2023-04-17T17:57:46.007Z,22.67
2023-04-17T18:00:07.213Z,21.60
2023-04-17T18:02:36.380Z,21.37
2023-04-17T18:05:05.700Z,22.93
2023-04-17T18:07:34.757Z,21.42
2023-04-17T18:10:03.768Z,22.27
2023-04-17T18:12:32.759Z,21.68
2023-04-17T18:15:02.068Z,22.02
2023-04-17T18:17:32.823Z,22.13
2023-04-17T18:20:01.620Z,23.50
2023-04-17T18:22:30.569Z,22.47
2023-04-17T18:24:59.883Z,20.68
2023-04-17T18:27:29.282Z,23.80
2023-04-17T18:29:58.682Z,21.52
2023-04-17T18:32:27.889Z,21.83
2023-04-17T18:34:57.180Z,23.38
2023-04-17T18:37:26.587Z,23.67
2023-04-17T18:39:55.766Z,21.43
2023-04-17T18:42:24.973Z,22.52
2023-04-17T18:44:58.890Z,22.35
2023-04-17T18:47:28.339Z,23.63
2023-04-17T18:49:57.590Z,23.37
2023-04-17T18:52:27.103Z,23.12
2023-04-17T18:54:56.406Z,22.67
2023-04-17T18:57:25.580Z,24.12
2023-04-17T18:59:55.002Z,23.57
2023-04-17T19:02:24.009Z,24.35
2023-04-17T19:04:54.480Z,24.92
2023-04-17T19:07:23.722Z,23.73
2023-04-17T19:09:53.019Z,23.05
2023-04-17T19:12:22.217Z,23.67
2023-04-17T19:14:54.389Z,23.62
2023-04-17T19:17:23.939Z,22.73
2023-04-17T19:19:52.882Z,24.00
2023-04-17T19:22:22.186Z,23.05
2023-04-17T19:24:51.386Z,22.70
2023-04-17T19:27:20.475Z,23.95
2023-04-17T19:29:49.575Z,22.00
2023-04-17T19:32:19.250Z,24.67
2023-04-17T19:37:40.312Z,22.50
2023-04-17T19:40:21.411Z,23.45
2023-04-17T19:42:39.725Z,23.57
2023-04-17T19:45:08.719Z,21.73
2023-04-17T19:47:37.893Z,23.12
2023-04-17T19:50:07.207Z,22.13
2023-04-17T19:52:36.117Z,24.27
2023-04-17T19:55:04.992Z,25.15
2023-04-17T19:57:34.200Z,23.18
2023-04-17T20:00:03.144Z,23.40
2023-04-17T20:02:33.723Z,24.35
2023-04-17T20:05:03.148Z,22.70
2023-04-17T20:07:32.124Z,23.42
2023-04-17T20:10:02.539Z,24.72
2023-04-17T20:12:31.646Z,21.42
2023-04-17T20:15:00.649Z,22.67
2023-04-17T20:17:29.664Z,21.40
2023-04-17T20:19:58.930Z,22.77
2023-04-17T20:22:27.923Z,21.73
2023-04-17T20:24:56.806Z,21.93
2023-04-17T20:27:25.912Z,21.57
2023-04-17T20:29:55.004Z,21.85
2023-04-17T20:32:23.910Z,20.50
2023-04-17T20:34:52.782Z,19.57
2023-04-17T20:37:23.711Z,20.95
2023-04-17T20:42:21.011Z,19.57
2023-04-17T20:44:50.095Z,21.33
2023-04-17T20:47:19.080Z,19.77
2023-04-17T20:49:48.078Z,19.80
2023-04-17T20:52:17.276Z,21.00
2023-04-17T20:54:46.477Z,19.80
2023-04-17T20:57:15.472Z,20.90
2023-04-17T20:59:44.456Z,19.95
2023-04-17T21:02:13.555Z,21.12
2023-04-17T21:04:43.113Z,19.67
2023-04-17T21:07:12.251Z,22.77
2023-04-17T21:09:41.347Z,21.20
2023-04-17T21:12:10.244Z,20.90
2023-04-17T21:14:39.698Z,21.95
2023-04-17T21:17:09.247Z,25.55
2023-04-17T21:19:38.355Z,22.15
2023-04-17T21:22:07.245Z,21.68
2023-04-17T21:24:36.127Z,20.02
2023-04-17T21:27:05.130Z,21.75
2023-04-17T21:29:34.239Z,21.85
2023-04-17T21:32:03.189Z,20.92
2023-04-17T21:34:32.203Z,21.23
2023-04-17T21:37:01.329Z,20.02
2023-04-17T21:39:31.655Z,19.82
2023-04-17T21:42:00.541Z,19.10
2023-04-17T21:44:29.818Z,19.32
2023-04-17T21:46:58.710Z,17.40
2023-04-17T21:49:27.707Z,18.15
2023-04-17T21:51:56.699Z,17.57
2023-04-17T21:54:25.698Z,17.10
2023-04-17T21:56:54.579Z,16.05
2023-04-17T21:59:23.683Z,16.23
2023-04-17T22:01:52.605Z,16.20
2023-04-17T22:04:21.714Z,16.82
2023-04-17T22:06:50.765Z,17.02
2023-04-17T22:09:19.661Z,17.30
2023-04-17T22:11:48.521Z,17.52
2023-04-17T22:14:17.738Z,16.43
2023-04-17T22:16:46.905Z,18.15
2023-04-17T22:19:16.048Z,22.33
2023-04-17T22:21:44.924Z,19.05
2023-04-17T22:24:14.063Z,18.75
2023-04-17T22:26:43.223Z,20.15
2023-04-17T22:29:12.337Z,20.40
2023-04-17T22:31:41.313Z,20.20
2023-04-17T22:34:10.197Z,19.52
2023-04-17T22:36:39.196Z,20.02
2023-04-17T22:39:08.079Z,20.77
2023-04-17T22:41:37.082Z,20.10
2023-04-17T22:44:06.074Z,22.25
2023-04-17T22:46:35.215Z,21.27
2023-04-17T22:49:04.269Z,23.75
2023-04-17T22:51:33.476Z,23.62
2023-04-17T22:54:11.455Z,22.47
2023-04-17T22:56:32.879Z,22.85
2023-04-17T22:59:01.880Z,22.55
2023-04-17T23:01:30.816Z,24.47
2023-04-17T23:03:59.724Z,22.37
2023-04-17T23:06:28.652Z,23.87
2023-04-17T23:08:57.750Z,28.00
2023-04-17T23:11:26.631Z,29.42
2023-04-17T23:13:55.523Z,33.18
2023-04-17T23:16:24.548Z,34.58
2023-04-17T23:18:53.682Z,34.83
2023-04-17T23:21:22.908Z,35.98
2023-04-17T23:23:52.018Z,36.27
2023-04-17T23:26:20.899Z,38.67
2023-04-17T23:28:49.789Z,37.58
2023-04-17T23:31:18.823Z,38.67
2023-04-17T23:33:48.072Z,37.67
2023-04-17T23:36:16.977Z,39.57
2023-04-17T23:38:46.103Z,39.33
2023-04-17T23:41:15.480Z,39.53
2023-04-17T23:43:44.678Z,41.27
2023-04-17T23:46:13.915Z,39.95
2023-04-17T23:48:42.965Z,40.17
2023-04-17T23:51:12.381Z,40.80
2023-04-17T23:53:41.582Z,40.92
2023-04-17T23:56:10.663Z,40.37
2023-04-17T23:58:39.971Z,39.92
